McHenry, IL

7:25 PM CDT on October 01, 2014 (GMT -0500)
Glacier Ridge - West Side | Change Station
CLOSE
Current Station
Personal Weather Station
Location: McHenry, IL
Elevation: 925 ft
Nearby Weather Stations

Elev 925 ft 42.35 °N, 88.33 °W | Updated 33 minutes ago

Partly Cloudy
Partly Cloudy
61.9 °F
Feels Like 61.9 °F
N
0.0
Wind Variable Wind from ENE
Gusts 0.0 mph

Today
High -- | Low -- °F
--% Chance of Precip.
Yesterday
High -- | Low -- °F
Precip. -- in
6:50 AM 6:34 PM
First Quarter, 52% visible
Pressure 30.03 in
Visibility 10.0 miles
Clouds Few 1200 ft
Overcast 1900 ft
Dew Point 52 °F
Humidity 70%
Rainfall 0.00 in
Snow Depth Not available.
UV 0 out of 12
Pollen 2.80 out of 12
Ozone Good
PM2.5 Moderate
Flu Activity Not available.
METAR KUGN 302255Z 35005KT 10SM FEW012 OVC019 11/09 A3002 RMK AO2 SLP167 T01110089

More Conditions Fewer Conditions

Pressure 30.03 in
Visibility 10.0 miles
Clouds Few 1200 ft
Overcast 1900 ft
Dew Point 52 °F
Humidity 70%
Rainfall 0.00 in
Snow Depth Not available.
UV 0 out of 12
Pollen 2.80 out of 12
Ozone Good
PM2.5 Moderate
Flu Activity Not available.
METAR KUGN 302255Z 35005KT 10SM FEW012 OVC019 11/09 A3002 RMK AO2 SLP167 T01110089

More Conditions Fewer Conditions

10-Day Weather Forecast

Almanac

Astronomy

Oct. 01, 2014 Rise Set
Actual Time 6:50 AM CDT 6:34 PM CDT
Civil Twilight 6:22 AM CDT 7:02 PM CDT
Nautical Twilight 5:49 AM CDT 7:35 PM CDT
Astronomical Twilight 5:16 AM CDT 8:07 PM CDT
Moon 1:55 PM CDT (10/1) No Moon Set
Length of Visible Light 12h 40m
Length of Day
11h 44m
Tomorrow will be 2m 50s shorter.
First Quarter, 52% of the Moon is Illuminated
Today
First Quarter
Oct 8
Full
Oct 15
Last Quarter
Oct 23
New
Oct 30
First Quarter

Today's Extremes

State Highs State Lows

Community

WunderPhotos

Upload Photos

1,758,097 photos uploaded!

WunderBlogs® & News

Nearby

Air Quality

  Air Quality AQ Index Pollutant
Yesterday Good
PM2.5
Yesterday Good
OZONE
Current Moderate
PM2.5
Current Good
OZONE
Wednesday Good
PM2.5
Thursday Moderate
PM2.5
Friday Good
PM2.5
Saturday Good
PM2.5

Snow Depth

Station Depth Elevation
No new snow has been reported.

Earthquake Activity

City Distance Mag. Time & Date
No recent earthquake activity has been reported nearby.
Minimum magnitude displayed is 2.5.

Coastal Water Temperatures

Place Temperature
No Stations Reporting

Nearby Weather Stations